Time;durP1;ratioP1;P1;durP2;ratioP2;P2;SDS_P1;SDS_P2;PMS_P1;PMS_P2;Temp;Humidity;BMP_temperature;BMP_pressure;BME280_temperature;BME280_humidity;BME280_pressure;Samples;Min_cycle;Max_cycle;Signal;HPM_P1;HPM_P2
2023/04/03 00:01:33;;;;;;;3.17;3.08;;;;;;;;;;5017184;28;20502;-93
2023/04/03 00:03:59;;;;;;;2.90;2.80;;;;;;;;;;5016735;28;20050;-93
2023/04/03 00:06:27;;;;;;;3.05;2.95;;;;;;;;;;5012745;28;20045;-93
2023/04/03 00:08:54;;;;;;;2.90;2.80;;;;;;;;;;5016628;28;20457;-93
2023/04/03 00:11:21;;;;;;;3.63;3.42;;;;;;;;;;5017294;28;20060;-95
2023/04/03 00:13:48;;;;;;;4.43;4.22;;;;;;;;;;5017242;28;20461;-94
2023/04/03 00:16:14;;;;;;;2.13;2.03;;;;;;;;;;5017242;28;20116;-94
2023/04/03 00:18:41;;;;;;;4.60;4.40;;;;;;;;;;5016946;28;20054;-94
2023/04/03 00:21:08;;;;;;;2.80;2.67;;;;;;;;;;5018068;28;20042;-95
2023/04/03 00:23:36;;;;;;;2.58;2.47;;;;;;;;;;5015464;28;20061;-94
2023/04/03 00:26:03;;;;;;;2.97;2.80;;;;;;;;;;4998045;28;20117;-95
2023/04/03 00:28:29;;;;;;;5.25;5.05;;;;;;;;;;4999935;28;20050;-95
2023/04/03 00:30:56;;;;;;;3.45;3.33;;;;;;;;;;4999105;28;20050;-93
2023/04/03 00:33:24;;;;;;;3.42;3.33;;;;;;;;;;4996917;28;20545;-94
2023/04/03 00:35:51;;;;;;;3.83;3.63;;;;;;;;;;5015342;28;20049;-94
2023/04/03 00:38:18;;;;;;;2.60;2.50;;;;;;;;;;5016532;28;20053;-95
2023/04/03 00:40:47;;;;;;;3.72;3.42;;;;;;;;;;5015955;28;20050;-95
2023/04/03 00:43:15;;;;;;;2.38;2.28;;;;;;;;;;5017127;28;20104;-95
2023/04/03 00:45:43;;;;;;;3.50;3.40;;;;;;;;;;5017761;28;20108;-95
2023/04/03 00:48:12;;;;;;;3.42;3.33;;;;;;;;;;5022082;28;20053;-95
2023/04/03 00:50:40;;;;;;;3.17;3.08;;;;;;;;;;5018691;28;20045;-93
2023/04/03 00:53:07;;;;;;;3.40;3.22;;;;;;;;;;5016763;28;20605;-95
2023/04/03 00:55:35;;;;;;;2.42;2.33;;;;;;;;;;5016266;28;20049;-93
2023/04/03 00:58:03;;;;;;;2.70;2.60;;;;;;;;;;5011655;28;20050;-94
2023/04/03 01:00:30;;;;;;;3.83;3.63;;;;;;;;;;5018954;28;20100;-95
2023/04/03 01:02:58;;;;;;;1.92;1.83;;;;;;;;;;5033618;28;20054;-95
2023/04/03 01:05:24;;;;;;;2.88;2.78;;;;;;;;;;5034255;28;20050;-95
2023/04/03 01:07:52;;;;;;;2.08;1.98;;;;;;;;;;5020034;28;20088;-95
2023/04/03 01:10:20;;;;;;;2.08;1.98;;;;;;;;;;5014923;28;20489;-95
2023/04/03 01:12:49;;;;;;;2.47;2.38;;;;;;;;;;5015722;28;20140;-94
2023/04/03 01:15:18;;;;;;;2.75;2.65;;;;;;;;;;5005036;28;20050;-95
2023/04/03 01:17:46;;;;;;;2.38;2.28;;;;;;;;;;4997199;28;20113;-94
2023/04/03 01:20:31;;;;;;;3.30;3.15;;;;;;;;;;5022161;28;20088;-94
2023/04/03 01:22:59;;;;;;;3.25;3.15;;;;;;;;;;5038160;28;20050;-95
2023/04/03 01:25:26;;;;;;;3.72;3.53;;;;;;;;;;5026400;28;20049;-94
2023/04/03 01:27:53;;;;;;;3.05;2.95;;;;;;;;;;4997464;28;20050;-95
2023/04/03 01:30:24;;;;;;;2.95;2.83;;;;;;;;;;5003211;28;20053;-94
2023/04/03 01:32:53;;;;;;;3.58;3.47;;;;;;;;;;5015837;28;20050;-94
2023/04/03 01:35:19;;;;;;;2.67;2.58;;;;;;;;;;5015779;28;20455;-94
2023/04/03 01:37:46;;;;;;;3.33;3.20;;;;;;;;;;5016088;28;20053;-94
2023/04/03 01:40:12;;;;;;;2.42;2.33;;;;;;;;;;5015952;28;20452;-94
2023/04/03 01:42:39;;;;;;;3.45;3.35;;;;;;;;;;5015961;28;20053;-94
2023/04/03 01:45:06;;;;;;;5.38;5.18;;;;;;;;;;5015778;28;20498;-94
2023/04/03 01:47:32;;;;;;;1.75;1.65;;;;;;;;;;5015324;28;20050;-95
2023/04/03 01:50:00;;;;;;;2.15;2.05;;;;;;;;;;5015499;28;20101;-94
2023/04/03 01:52:27;;;;;;;1.83;1.73;;;;;;;;;;5016026;28;20050;-94
2023/04/03 01:54:53;;;;;;;2.50;2.40;;;;;;;;;;5016237;28;20065;-95
2023/04/03 01:57:20;;;;;;;2.30;2.20;;;;;;;;;;5014969;28;20521;-94
2023/04/03 01:59:47;;;;;;;2.50;2.40;;;;;;;;;;5015314;28;20054;-94
2023/04/03 02:02:14;;;;;;;2.40;2.30;;;;;;;;;;5015221;28;20085;-94
2023/04/03 02:04:41;;;;;;;2.53;2.42;;;;;;;;;;5011609;28;20050;-94
2023/04/03 02:07:09;;;;;;;2.00;1.90;;;;;;;;;;4999466;28;20050;-94
2023/04/03 02:09:35;;;;;;;2.00;1.90;;;;;;;;;;4996532;28;20097;-93
2023/04/03 02:12:02;;;;;;;4.32;4.13;;;;;;;;;;4996091;28;20054;-94
2023/04/03 02:14:29;;;;;;;3.28;2.60;;;;;;;;;;4995161;28;20545;-94
2023/04/03 02:16:55;;;;;;;3.17;3.08;;;;;;;;;;4995629;28;20074;-95
2023/04/03 02:19:23;;;;;;;3.00;2.85;;;;;;;;;;5005912;28;20070;-94
2023/04/03 02:21:50;;;;;;;1.65;1.55;;;;;;;;;;5034009;28;20050;-96
2023/04/03 02:24:18;;;;;;;2.90;2.70;;;;;;;;;;5030081;28;20136;-95
2023/04/03 02:26:45;;;;;;;2.35;2.25;;;;;;;;;;5030470;28;20046;-95
2023/04/03 02:29:11;;;;;;;2.15;2.05;;;;;;;;;;5029980;28;20046;-95
2023/04/03 02:31:38;;;;;;;2.40;2.30;;;;;;;;;;5007240;28;20058;-94
2023/04/03 02:34:05;;;;;;;2.08;1.98;;;;;;;;;;4999434;28;20477;-94
2023/04/03 02:36:31;;;;;;;2.78;2.67;;;;;;;;;;4998811;28;20089;-94
2023/04/03 02:38:58;;;;;;;3.33;3.22;;;;;;;;;;4998440;28;20049;-94
2023/04/03 02:41:33;;;;;;;2.90;2.80;;;;;;;;;;4998538;28;20097;-94
2023/04/03 02:43:59;;;;;;;2.08;1.98;;;;;;;;;;4998877;28;20058;-94
2023/04/03 02:46:26;;;;;;;2.80;2.70;;;;;;;;;;4999193;28;20527;-93
2023/04/03 02:48:53;;;;;;;2.95;2.85;;;;;;;;;;5000977;28;20453;-93
2023/04/03 02:51:19;;;;;;;3.20;3.10;;;;;;;;;;5001876;28;20481;-94
2023/04/03 02:53:46;;;;;;;3.33;3.22;;;;;;;;;;5001538;28;20051;-93
2023/04/03 02:56:12;;;;;;;2.78;2.67;;;;;;;;;;5014916;28;21204;-93
2023/04/03 02:58:40;;;;;;;4.65;4.45;;;;;;;;;;5019146;28;20452;-93
2023/04/03 03:01:07;;;;;;;2.63;2.53;;;;;;;;;;5017946;28;20049;-93
2023/04/03 03:03:34;;;;;;;3.03;2.92;;;;;;;;;;5018628;28;20061;-95
2023/04/03 03:06:04;;;;;;;7.30;7.00;;;;;;;;;;5018441;28;20053;-93
2023/04/03 03:08:31;;;;;;;3.33;3.22;;;;;;;;;;5018213;28;20121;-93
2023/04/03 03:10:57;;;;;;;4.05;3.85;;;;;;;;;;5017651;28;20124;-94
2023/04/03 03:13:24;;;;;;;3.20;3.10;;;;;;;;;;5018190;28;20045;-93
2023/04/03 03:15:52;;;;;;;2.92;2.83;;;;;;;;;;5018293;28;20050;-93
2023/04/03 03:18:19;;;;;;;2.25;2.15;;;;;;;;;;5018101;28;20049;-94
2023/04/03 03:20:45;;;;;;;2.95;2.85;;;;;;;;;;5017404;28;20049;-93
2023/04/03 03:23:12;;;;;;;3.45;3.15;;;;;;;;;;5017773;28;20050;-93
2023/04/03 03:25:38;;;;;;;2.42;2.33;;;;;;;;;;5017704;28;20080;-92
2023/04/03 03:28:05;;;;;;;2.85;2.75;;;;;;;;;;5017286;28;20061;-93
2023/04/03 03:30:32;;;;;;;2.47;2.38;;;;;;;;;;5016923;28;20045;-94
2023/04/03 03:33:00;;;;;;;2.83;2.72;;;;;;;;;;5016257;28;20437;-93
2023/04/03 03:35:26;;;;;;;3.72;3.60;;;;;;;;;;5017541;28;20057;-93
2023/04/03 03:37:53;;;;;;;2.80;2.70;;;;;;;;;;5017786;28;20049;-93
2023/04/03 03:40:19;;;;;;;3.92;3.63;;;;;;;;;;5017738;28;20112;-94
2023/04/03 03:42:46;;;;;;;2.45;2.35;;;;;;;;;;5017715;28;20529;-93
2023/04/03 03:45:13;;;;;;;4.03;3.83;;;;;;;;;;5017593;28;20054;-94
2023/04/03 03:47:39;;;;;;;3.33;3.22;;;;;;;;;;5017636;28;20584;-92
2023/04/03 03:50:08;;;;;;;2.55;2.45;;;;;;;;;;5017936;28;20050;-93
2023/04/03 03:52:35;;;;;;;4.20;4.00;;;;;;;;;;5017374;28;20072;-93
2023/04/03 03:55:02;;;;;;;2.83;2.72;;;;;;;;;;5017146;28;20395;-93
2023/04/03 03:57:28;;;;;;;2.28;2.17;;;;;;;;;;5017616;28;20050;-94
2023/04/03 03:59:55;;;;;;;3.58;3.38;;;;;;;;;;5017812;28;20104;-94
2023/04/03 04:02:22;;;;;;;2.47;2.28;;;;;;;;;;4998821;28;20100;-95
2023/04/03 04:04:49;;;;;;;2.03;1.92;;;;;;;;;;4998378;28;20054;-94
2023/04/03 04:07:17;;;;;;;2.53;2.42;;;;;;;;;;4998701;28;20058;-94
2023/04/03 04:09:44;;;;;;;1.83;1.73;;;;;;;;;;4996978;28;20042;-94
2023/04/03 04:12:10;;;;;;;3.70;3.50;;;;;;;;;;4997807;28;20050;-94
2023/04/03 04:14:37;;;;;;;2.78;2.67;;;;;;;;;;4997417;28;20573;-94
2023/04/03 04:17:03;;;;;;;3.05;2.95;;;;;;;;;;4998007;28;20454;-95
2023/04/03 04:19:30;;;;;;;3.45;3.15;;;;;;;;;;5003602;28;20038;-94
2023/04/03 04:21:57;;;;;;;3.75;3.50;;;;;;;;;;5016167;28;20054;-93
2023/04/03 04:24:24;;;;;;;4.05;3.88;;;;;;;;;;5016416;28;20469;-93
2023/04/03 04:26:51;;;;;;;2.05;1.95;;;;;;;;;;5016075;28;20522;-93
2023/04/03 04:29:18;;;;;;;3.53;3.42;;;;;;;;;;5015988;28;20445;-94
2023/04/03 04:31:44;;;;;;;3.78;3.67;;;;;;;;;;5016454;28;20103;-94
2023/04/03 04:34:12;;;;;;;2.38;2.28;;;;;;;;;;5019070;28;20494;-95
2023/04/03 04:36:39;;;;;;;3.83;3.63;;;;;;;;;;5014224;28;20104;-95
2023/04/03 04:39:06;;;;;;;3.08;2.97;;;;;;;;;;4999579;28;20121;-96
2023/04/03 04:41:34;;;;;;;3.60;3.50;;;;;;;;;;5000174;28;20047;-94
2023/04/03 04:44:00;;;;;;;2.22;2.13;;;;;;;;;;4996373;28;20518;-94
2023/04/03 04:46:27;;;;;;;3.38;3.28;;;;;;;;;;4996955;28;20054;-93
2023/04/03 04:48:54;;;;;;;2.67;2.58;;;;;;;;;;4997273;28;20054;-93
2023/04/03 04:51:20;;;;;;;3.67;3.55;;;;;;;;;;5007482;28;20053;-94
2023/04/03 04:53:47;;;;;;;3.67;3.55;;;;;;;;;;5005070;28;20108;-94
2023/04/03 04:56:13;;;;;;;2.97;2.88;;;;;;;;;;5003019;28;20062;-93
2023/04/03 04:58:41;;;;;;;4.45;4.25;;;;;;;;;;5016202;28;20611;-94
2023/04/03 05:01:09;;;;;;;3.33;3.22;;;;;;;;;;5023573;28;20103;-94
2023/04/03 05:03:35;;;;;;;3.50;3.30;;;;;;;;;;5017305;28;20648;-94
2023/04/03 05:06:02;;;;;;;3.90;3.75;;;;;;;;;;5030409;28;20050;-94
2023/04/03 05:08:29;;;;;;;3.83;3.63;;;;;;;;;;5018190;28;20050;-95
2023/04/03 05:10:55;;;;;;;7.30;6.70;;;;;;;;;;5016926;28;20050;-95
2023/04/03 05:13:22;;;;;;;8.73;8.23;;;;;;;;;;5016124;28;20112;-95
2023/04/03 05:15:50;;;;;;;5.10;4.80;;;;;;;;;;5016368;28;20472;-96
2023/04/03 05:18:17;;;;;;;5.28;4.97;;;;;;;;;;5019515;28;20061;-95
2023/04/03 05:20:43;;;;;;;4.38;4.07;;;;;;;;;;5018602;28;20100;-95
2023/04/03 05:23:10;;;;;;;7.07;6.78;;;;;;;;;;5017331;28;20137;-94
2023/04/03 05:25:38;;;;;;;3.72;3.53;;;;;;;;;;5016037;28;20054;-94
2023/04/03 05:28:08;;;;;;;3.35;2.78;;;;;;;;;;5014878;28;20058;-95
2023/04/03 05:33:32;;;;;;;4.45;4.05;;;;;;;;;;5011657;28;20058;-95
2023/04/03 05:36:05;;;;;;;2.70;2.60;;;;;;;;;;5151073;23;20068;-95
2023/04/03 05:38:40;;;;;;;6.43;6.13;;;;;;;;;;5035677;28;20069;-95
2023/04/03 05:41:10;;;;;;;4.05;3.85;;;;;;;;;;5034669;28;20076;-94
2023/04/03 05:43:40;;;;;;;4.13;3.88;;;;;;;;;;5037137;28;20026;-95
2023/04/03 05:46:11;;;;;;;6.43;6.13;;;;;;;;;;5031321;28;20061;-96
2023/04/03 05:48:41;;;;;;;6.93;6.55;;;;;;;;;;5035245;28;20053;-95
2023/04/03 05:51:08;;;;;;;3.55;3.33;;;;;;;;;;5027046;28;20046;-94
2023/04/03 05:53:36;;;;;;;3.72;3.53;;;;;;;;;;5015302;28;20488;-93
2023/04/03 05:56:03;;;;;;;4.10;3.90;;;;;;;;;;5019117;28;20046;-96
2023/04/03 05:58:30;;;;;;;3.78;3.60;;;;;;;;;;5027198;28;20073;-96
2023/04/03 06:00:57;;;;;;;5.43;5.13;;;;;;;;;;5029955;28;20064;-96
2023/04/03 06:03:24;;;;;;;6.70;6.25;;;;;;;;;;5023355;28;20097;-96
2023/04/03 06:05:52;;;;;;;5.28;4.90;;;;;;;;;;5029321;28;20053;-95
2023/04/03 06:08:19;;;;;;;4.15;3.85;;;;;;;;;;5008625;28;20054;-93
2023/04/03 06:10:46;;;;;;;5.28;4.95;;;;;;;;;;5008070;28;20042;-96
2023/04/03 06:13:12;;;;;;;4.05;3.85;;;;;;;;;;5022446;28;20058;-96
2023/04/03 06:15:39;;;;;;;4.32;4.13;;;;;;;;;;5022766;28;20445;-96
2023/04/03 06:18:06;;;;;;;6.18;5.53;;;;;;;;;;5022844;28;20310;-96
2023/04/03 06:20:33;;;;;;;6.18;5.88;;;;;;;;;;5020268;28;20046;-95
2023/04/03 06:23:03;;;;;;;4.97;4.75;;;;;;;;;;5027616;28;20529;-96
2023/04/03 06:25:31;;;;;;;5.10;4.80;;;;;;;;;;5030782;28;20053;-96
2023/04/03 06:27:58;;;;;;;5.15;4.85;;;;;;;;;;5032599;28;20070;-96
2023/04/03 06:30:25;;;;;;;6.70;6.30;;;;;;;;;;5032913;28;20046;-95
2023/04/03 06:32:53;;;;;;;4.85;4.45;;;;;;;;;;5026761;28;20042;-96
2023/04/03 06:35:20;;;;;;;6.90;6.47;;;;;;;;;;5026129;28;20141;-96
2023/04/03 06:37:47;;;;;;;3.80;3.45;;;;;;;;;;5028291;28;20061;-96
2023/04/03 06:40:20;;;;;;;6.50;6.10;;;;;;;;;;5031778;28;20058;-95
2023/04/03 06:42:47;;;;;;;4.85;3.85;;;;;;;;;;5022515;28;20054;-96
2023/04/03 06:45:14;;;;;;;4.95;4.53;;;;;;;;;;5008615;28;20065;-96
2023/04/03 06:47:46;;;;;;;4.30;4.07;;;;;;;;;;5014943;28;20125;-96
2023/04/03 06:50:14;;;;;;;5.28;4.97;;;;;;;;;;5018463;28;20046;-96
2023/04/03 06:52:43;;;;;;;5.40;4.88;;;;;;;;;;5014853;28;20118;-96
2023/04/03 06:55:11;;;;;;;5.50;5.20;;;;;;;;;;5004239;28;20046;-96
2023/04/03 06:57:39;;;;;;;5.10;4.88;;;;;;;;;;5009357;28;20113;-96
2023/04/03 07:00:06;;;;;;;8.38;4.18;;;;;;;;;;5022653;28;20058;-96
2023/04/03 07:02:33;;;;;;;5.93;5.63;;;;;;;;;;5018917;28;20564;-96
2023/04/03 07:05:00;;;;;;;5.57;5.28;;;;;;;;;;5019202;28;20052;-96
2023/04/03 07:07:27;;;;;;;4.25;4.05;;;;;;;;;;5020794;28;20050;-94
2023/04/03 07:09:54;;;;;;;5.65;5.28;;;;;;;;;;5022569;28;20060;-96
2023/04/03 07:12:21;;;;;;;4.80;4.60;;;;;;;;;;5023141;28;20076;-96
2023/04/03 07:14:49;;;;;;;6.18;5.70;;;;;;;;;;5022818;28;20068;-96
2023/04/03 07:17:16;;;;;;;3.47;3.38;;;;;;;;;;5026333;28;20046;-96
2023/04/03 07:19:42;;;;;;;4.68;4.38;;;;;;;;;;5019109;28;20053;-96
2023/04/03 07:22:10;;;;;;;5.68;5.43;;;;;;;;;;5026597;28;20061;-96
2023/04/03 07:24:38;;;;;;;4.65;4.43;;;;;;;;;;5019555;28;20050;-95
2023/04/03 07:27:08;;;;;;;5.78;5.45;;;;;;;;;;5023183;28;20053;-96
2023/04/03 07:29:34;;;;;;;5.50;5.25;;;;;;;;;;5026745;28;20114;-96
2023/04/03 07:32:03;;;;;;;5.20;4.75;;;;;;;;;;5022903;28;20509;-96
2023/04/03 07:34:30;;;;;;;5.40;5.10;;;;;;;;;;5024690;28;20073;-96
2023/04/03 07:36:57;;;;;;;7.97;7.38;;;;;;;;;;5022475;28;20050;-96
2023/04/03 07:39:24;;;;;;;4.80;4.50;;;;;;;;;;5023210;28;20080;-96
2023/04/03 07:42:01;;;;;;;6.22;5.85;;;;;;;;;;5030854;28;20116;-96
2023/04/03 07:44:32;;;;;;;6.20;5.90;;;;;;;;;;5032222;28;20046;-96
2023/04/03 07:46:59;;;;;;;5.40;5.10;;;;;;;;;;5032542;28;20048;-96
2023/04/03 07:49:28;;;;;;;6.95;6.43;;;;;;;;;;5032468;28;20466;-96
2023/04/03 07:52:00;;;;;;;7.88;7.32;;;;;;;;;;5029382;28;20112;-96
2023/04/03 07:54:28;;;;;;;5.38;5.07;;;;;;;;;;5029033;28;20046;-96
2023/04/03 07:56:55;;;;;;;5.72;5.43;;;;;;;;;;5017634;28;20053;-96
2023/04/03 07:59:22;;;;;;;4.75;4.35;;;;;;;;;;5032937;28;20572;-96
2023/04/03 08:01:52;;;;;;;5.00;4.75;;;;;;;;;;5032177;28;20122;-96
2023/04/03 08:04:37;;;;;;;5.57;5.22;;;;;;;;;;5022126;28;20052;-96
2023/04/03 08:07:04;;;;;;;5.00;4.80;;;;;;;;;;5012688;28;20046;-96
2023/04/03 08:09:33;;;;;;;6.03;5.72;;;;;;;;;;5021720;28;20056;-96
2023/04/03 08:12:00;;;;;;;9.35;8.75;;;;;;;;;;5005618;28;20490;-96
2023/04/03 08:14:28;;;;;;;5.95;5.60;;;;;;;;;;5019557;28;20081;-96
2023/04/03 08:17:09;;;;;;;7.00;6.55;;;;;;;;;;5014008;28;20077;-96
2023/04/03 08:19:40;;;;;;;6.90;6.53;;;;;;;;;;5005687;28;20157;-96
2023/04/03 08:22:08;;;;;;;6.35;5.95;;;;;;;;;;5011690;28;20073;-96
2023/04/03 08:24:36;;;;;;;7.40;7.10;;;;;;;;;;5015543;28;20064;-96
2023/04/03 08:27:04;;;;;;;13.32;12.75;;;;;;;;;;5027267;28;20053;-96
2023/04/03 08:29:33;;;;;;;7.35;6.90;;;;;;;;;;5027381;28;20077;-96
2023/04/03 08:32:00;;;;;;;5.78;5.50;;;;;;;;;;5016454;28;20046;-96
2023/04/03 08:34:27;;;;;;;8.73;6.38;;;;;;;;;;5015077;28;20057;-96
2023/04/03 08:36:55;;;;;;;7.05;6.72;;;;;;;;;;5022251;28;20058;-95
2023/04/03 08:39:22;;;;;;;7.20;6.80;;;;;;;;;;4998562;28;20057;-96
2023/04/03 08:41:49;;;;;;;7.95;7.63;;;;;;;;;;5005284;28;20055;-96
2023/04/03 08:44:18;;;;;;;7.43;7.10;;;;;;;;;;4996930;28;20053;-96
2023/04/03 08:46:53;;;;;;;16.58;15.88;;;;;;;;;;4985598;28;20498;-96
2023/04/03 08:49:23;;;;;;;7.10;6.57;;;;;;;;;;5004538;28;20060;-96
2023/04/03 08:51:51;;;;;;;15.60;14.85;;;;;;;;;;4998798;28;20050;-95
2023/04/03 08:54:25;;;;;;;7.18;6.88;;;;;;;;;;4983012;28;20070;-96
2023/04/03 08:56:51;;;;;;;19.27;18.48;;;;;;;;;;4979920;28;20047;-96
2023/04/03 08:59:23;;;;;;;12.68;12.07;;;;;;;;;;4999745;28;20057;-96
2023/04/03 09:01:51;;;;;;;13.00;12.43;;;;;;;;;;4994195;28;20055;-96
2023/04/03 09:04:18;;;;;;;17.15;16.55;;;;;;;;;;4997907;28;20054;-96
2023/04/03 09:06:48;;;;;;;14.73;14.13;;;;;;;;;;4999819;28;20047;-96
2023/04/03 09:09:16;;;;;;;18.50;17.77;;;;;;;;;;5001014;28;20053;-96
2023/04/03 09:11:54;;;;;;;15.82;15.13;;;;;;;;;;4994431;28;20495;-96
2023/04/03 09:14:25;;;;;;;17.13;16.42;;;;;;;;;;4988498;28;20057;-96
2023/04/03 09:16:55;;;;;;;17.85;17.05;;;;;;;;;;5001683;28;20062;-95
2023/04/03 09:19:24;;;;;;;6.70;6.32;;;;;;;;;;4986546;28;20081;-95
2023/04/03 09:21:51;;;;;;;6.90;6.50;;;;;;;;;;4993652;28;20077;-95
2023/04/03 09:24:18;;;;;;;7.13;6.68;;;;;;;;;;4998004;28;20058;-96
2023/04/03 09:26:47;;;;;;;7.63;7.32;;;;;;;;;;4996481;28;20054;-95
2023/04/03 09:29:18;;;;;;;9.38;8.98;;;;;;;;;;4979982;28;20051;-95
2023/04/03 09:31:45;;;;;;;9.40;9.00;;;;;;;;;;4976909;28;20129;-96
2023/04/03 09:34:20;;;;;;;9.35;8.75;;;;;;;;;;4990362;28;20487;-96
2023/04/03 09:36:48;;;;;;;7.60;7.20;;;;;;;;;;4990883;28;20115;-96
2023/04/03 09:39:15;;;;;;;6.70;6.35;;;;;;;;;;4991550;28;20050;-96
2023/04/03 09:41:43;;;;;;;5.68;5.18;;;;;;;;;;4999935;28;20054;-96
2023/04/03 09:44:23;;;;;;;6.97;6.57;;;;;;;;;;4978671;28;20054;-96
2023/04/03 09:46:49;;;;;;;7.40;7.00;;;;;;;;;;4978944;28;20055;-96
2023/04/03 09:49:16;;;;;;;5.82;5.53;;;;;;;;;;4994057;28;20061;-96
2023/04/03 09:51:43;;;;;;;8.32;7.80;;;;;;;;;;4987278;28;20047;-96
2023/04/03 09:54:35;;;;;;;14.15;13.43;;;;;;;;;;4981214;28;20534;-96
2023/04/03 09:57:04;;;;;;;16.88;16.17;;;;;;;;;;4960908;28;20074;-95
2023/04/03 09:59:32;;;;;;;9.30;8.70;;;;;;;;;;4994913;28;20080;-95
2023/04/03 10:02:00;;;;;;;9.48;8.93;;;;;;;;;;4997593;28;20153;-96
2023/04/03 10:04:37;;;;;;;10.52;10.02;;;;;;;;;;4996521;28;20442;-96
2023/04/03 10:07:03;;;;;;;10.50;9.77;;;;;;;;;;4986425;28;20050;-94
2023/04/03 10:09:31;;;;;;;8.23;7.82;;;;;;;;;;4975913;28;20118;-96
2023/04/03 10:11:58;;;;;;;7.63;7.22;;;;;;;;;;4976075;28;20047;-94
2023/04/03 10:14:26;;;;;;;7.70;7.22;;;;;;;;;;4976305;28;20106;-95
2023/04/03 10:16:57;;;;;;;7.53;7.13;;;;;;;;;;4983296;28;20478;-94
2023/04/03 10:19:33;;;;;;;7.38;7.05;;;;;;;;;;4994815;28;20158;-93
2023/04/03 10:22:01;;;;;;;7.25;6.68;;;;;;;;;;4994978;28;20054;-94
2023/04/03 10:24:31;;;;;;;9.23;8.82;;;;;;;;;;4979741;28;20082;-93
2023/04/03 10:27:00;;;;;;;10.43;9.93;;;;;;;;;;4975378;28;20464;-93
2023/04/03 10:29:31;;;;;;;8.18;7.68;;;;;;;;;;4974690;28;20162;-93
2023/04/03 10:32:05;;;;;;;19.48;18.58;;;;;;;;;;4974724;28;20042;-93
2023/04/03 10:34:34;;;;;;;9.15;8.55;;;;;;;;;;4984007;28;20061;-93
2023/04/03 10:37:07;;;;;;;11.55;11.05;;;;;;;;;;4994304;28;20450;-93
2023/04/03 10:39:38;;;;;;;6.28;5.97;;;;;;;;;;4994482;28;20054;-93
2023/04/03 10:42:08;;;;;;;9.43;8.57;;;;;;;;;;4995738;28;20506;-92
2023/04/03 10:44:42;;;;;;;8.63;8.00;;;;;;;;;;4998102;28;20486;-93
2023/04/03 10:47:13;;;;;;;8.00;7.57;;;;;;;;;;4998135;28;20050;-92
2023/04/03 10:49:46;;;;;;;16.80;15.60;;;;;;;;;;4997834;28;20066;-93
2023/04/03 10:52:15;;;;;;;12.90;11.82;;;;;;;;;;4998147;28;20053;-94
2023/04/03 10:54:45;;;;;;;24.52;17.02;;;;;;;;;;4982664;28;20078;-93
2023/04/03 10:57:12;;;;;;;13.32;11.50;;;;;;;;;;4994126;28;20117;-93
2023/04/03 10:59:41;;;;;;;23.60;14.73;;;;;;;;;;4982033;28;20383;-94
2023/04/03 11:02:13;;;;;;;12.75;11.73;;;;;;;;;;4998181;28;20078;-93
2023/04/03 11:04:41;;;;;;;10.02;9.23;;;;;;;;;;4998144;28;20138;-94
2023/04/03 11:07:11;;;;;;;10.32;9.45;;;;;;;;;;4997952;28;20561;-94
2023/04/03 11:09:40;;;;;;;10.13;9.40;;;;;;;;;;4997874;28;20058;-94
2023/04/03 11:12:11;;;;;;;8.07;7.50;;;;;;;;;;4998100;28;20184;-94
2023/04/03 11:14:39;;;;;;;18.65;17.65;;;;;;;;;;4998022;28;20077;-93
2023/04/03 11:17:12;;;;;;;11.00;10.23;;;;;;;;;;4998441;28;20065;-93
2023/04/03 11:19:43;;;;;;;12.82;12.13;;;;;;;;;;4998493;28;20450;-94
2023/04/03 11:22:29;;;;;;;18.65;17.85;;;;;;;;;;4997647;28;20101;-93
2023/04/03 11:24:58;;;;;;;8.85;8.25;;;;;;;;;;4997406;28;20054;-93
2023/04/03 11:27:26;;;;;;;23.13;21.98;;;;;;;;;;4997173;28;20137;-93
2023/04/03 11:29:53;;;;;;;21.92;21.02;;;;;;;;;;4987192;28;20093;-93
2023/04/03 11:32:31;;;;;;;9.45;8.90;;;;;;;;;;4977624;28;20050;-93
2023/04/03 11:34:59;;;;;;;8.90;8.48;;;;;;;;;;4977706;28;20057;-92
2023/04/03 11:37:29;;;;;;;20.30;19.48;;;;;;;;;;4987232;28;20054;-92
2023/04/03 11:39:58;;;;;;;18.05;17.30;;;;;;;;;;4997361;28;20138;-92
2023/04/03 11:42:27;;;;;;;10.73;10.10;;;;;;;;;;4996852;28;20049;-91
2023/04/03 11:45:23;;;;;;;16.75;15.88;;;;;;;;;;4996711;28;20046;-92
2023/04/03 11:47:51;;;;;;;7.57;7.18;;;;;;;;;;4997042;28;20050;-92
2023/04/03 11:50:41;;;;;;;6.95;6.60;;;;;;;;;;4988765;28;20073;-92
2023/04/03 11:53:28;;;;;;;9.05;8.55;;;;;;;;;;4976862;28;20054;-92
2023/04/03 11:55:56;;;;;;;8.50;7.90;;;;;;;;;;4977369;28;20133;-92
2023/04/03 11:58:23;;;;;;;11.02;9.80;;;;;;;;;;4977016;28;20134;-92
2023/04/03 12:00:51;;;;;;;9.50;8.70;;;;;;;;;;4977182;28;20061;-92
2023/04/03 12:03:47;;;;;;;8.50;7.82;;;;;;;;;;4977342;28;20047;-91
2023/04/03 12:06:41;;;;;;;8.48;7.95;;;;;;;;;;4905919;29;20051;-93
2023/04/03 12:09:22;;;;;;;18.00;17.10;;;;;;;;;;4879896;29;20077;-92
2023/04/03 12:11:50;;;;;;;12.45;11.65;;;;;;;;;;4879936;29;20092;-91
2023/04/03 12:14:17;;;;;;;12.98;11.98;;;;;;;;;;4879942;29;20053;-91
2023/04/03 12:16:45;;;;;;;16.80;15.98;;;;;;;;;;4880233;29;20451;-93
2023/04/03 12:19:32;;;;;;;11.20;10.02;;;;;;;;;;4877264;29;20501;-92
2023/04/03 12:22:07;;;;;;;8.30;7.75;;;;;;;;;;4879500;29;20052;-92
2023/04/03 12:24:36;;;;;;;10.68;10.00;;;;;;;;;;4879581;29;20052;-92
2023/04/03 12:27:03;;;;;;;13.13;12.15;;;;;;;;;;4874476;29;20625;-92
2023/04/03 12:29:34;;;;;;;9.02;8.50;;;;;;;;;;4879793;29;20052;-92
2023/04/03 12:32:07;;;;;;;8.63;8.13;;;;;;;;;;4879284;29;20131;-93
2023/04/03 12:34:45;;;;;;;21.30;20.23;;;;;;;;;;4874194;29;20056;-92
2023/04/03 12:37:20;;;;;;;20.80;19.80;;;;;;;;;;4860860;29;20061;-92
2023/04/03 12:39:52;;;;;;;24.35;23.00;;;;;;;;;;4879044;29;20051;-93
2023/04/03 12:42:25;;;;;;;19.92;19.02;;;;;;;;;;4935995;29;20048;-91
2023/04/03 12:44:57;;;;;;;6.80;6.40;;;;;;;;;;4965523;28;20055;-92
2023/04/03 12:47:26;;;;;;;10.57;9.88;;;;;;;;;;4995143;28;20755;-92
2023/04/03 12:49:54;;;;;;;18.55;17.50;;;;;;;;;;4995785;28;20058;-92
2023/04/03 12:52:25;;;;;;;8.95;8.35;;;;;;;;;;4995234;28;20502;-92
2023/04/03 12:54:53;;;;;;;9.50;9.00;;;;;;;;;;4995656;28;20491;-92
2023/04/03 12:57:21;;;;;;;8.20;7.72;;;;;;;;;;4995461;28;20054;-92
2023/04/03 12:59:48;;;;;;;15.35;14.40;;;;;;;;;;4980112;28;20051;-92
2023/04/03 13:02:23;;;;;;;18.80;17.80;;;;;;;;;;4981788;28;20055;-93
2023/04/03 13:04:50;;;;;;;9.73;8.95;;;;;;;;;;4986189;28;20134;-93
2023/04/03 13:07:21;;;;;;;6.93;6.63;;;;;;;;;;4976024;28;20051;-93
2023/04/03 13:09:57;;;;;;;9.55;9.05;;;;;;;;;;4980189;28;20054;-94
2023/04/03 13:12:24;;;;;;;7.63;7.22;;;;;;;;;;4995341;28;20047;-93
2023/04/03 13:14:54;;;;;;;8.32;7.93;;;;;;;;;;4995413;28;20050;-93
2023/04/03 13:17:21;;;;;;;7.53;7.00;;;;;;;;;;4977160;28;20078;-92
2023/04/03 13:19:47;;;;;;;7.63;7.13;;;;;;;;;;4983949;28;20065;-93
2023/04/03 13:22:22;;;;;;;6.82;6.43;;;;;;;;;;4982453;28;20101;-93
2023/04/03 13:24:50;;;;;;;8.25;7.78;;;;;;;;;;4975866;28;20051;-93
2023/04/03 13:27:18;;;;;;;9.57;8.98;;;;;;;;;;4976583;28;20078;-93
2023/04/03 13:29:50;;;;;;;10.77;10.18;;;;;;;;;;4983646;28;20042;-93
2023/04/03 13:32:18;;;;;;;10.15;9.65;;;;;;;;;;4987002;28;20070;-92
2023/04/03 13:34:46;;;;;;;10.90;10.20;;;;;;;;;;4982904;28;20061;-93
2023/04/03 13:37:20;;;;;;;12.77;12.00;;;;;;;;;;4995590;28;20057;-93
2023/04/03 13:39:57;;;;;;;12.73;11.90;;;;;;;;;;4995167;28;20050;-94
2023/04/03 13:42:26;;;;;;;12.63;11.90;;;;;;;;;;4989747;28;20784;-93
2023/04/03 13:45:07;;;;;;;12.30;11.50;;;;;;;;;;4982945;28;20053;-93
2023/04/03 13:47:38;;;;;;;14.77;13.88;;;;;;;;;;4994864;28;20050;-93
2023/04/03 13:50:13;;;;;;;15.88;14.65;;;;;;;;;;4995174;28;20105;-93
2023/04/03 13:52:41;;;;;;;12.35;10.80;;;;;;;;;;4989026;28;20545;-93
2023/04/03 13:55:16;;;;;;;12.93;12.05;;;;;;;;;;4992764;28;20050;-93
2023/04/03 13:57:51;;;;;;;9.43;8.82;;;;;;;;;;4994952;28;20058;-93
2023/04/03 14:00:38;;;;;;;11.45;10.68;;;;;;;;;;4996016;28;20050;-93
2023/04/03 14:03:13;;;;;;;10.50;9.80;;;;;;;;;;4995374;28;20069;-94
2023/04/03 14:05:40;;;;;;;9.68;9.18;;;;;;;;;;4981802;28;20050;-94
2023/04/03 14:08:07;;;;;;;8.90;8.38;;;;;;;;;;4975209;28;20055;-93
2023/04/03 14:10:33;;;;;;;8.35;7.88;;;;;;;;;;4975537;28;20074;-94
2023/04/03 14:13:01;;;;;;;8.13;7.63;;;;;;;;;;4976102;28;20050;-94
2023/04/03 14:15:29;;;;;;;9.65;9.05;;;;;;;;;;4978778;28;20042;-94
2023/04/03 14:17:56;;;;;;;18.00;17.10;;;;;;;;;;4983105;28;20055;-93
2023/04/03 14:20:24;;;;;;;10.40;9.73;;;;;;;;;;4979691;28;20047;-93
2023/04/03 14:22:51;;;;;;;9.85;9.30;;;;;;;;;;4992517;28;20054;-93
2023/04/03 14:25:18;;;;;;;10.07;9.43;;;;;;;;;;4998889;28;20773;-93
2023/04/03 14:27:46;;;;;;;7.65;7.25;;;;;;;;;;4980141;28;20062;-93
2023/04/03 14:30:17;;;;;;;11.77;10.88;;;;;;;;;;4979532;28;20430;-93
2023/04/03 14:32:44;;;;;;;8.80;8.38;;;;;;;;;;4978891;28;20105;-93
2023/04/03 14:35:11;;;;;;;8.45;8.05;;;;;;;;;;4979402;28;20510;-93
2023/04/03 14:37:37;;;;;;;9.90;9.45;;;;;;;;;;4986752;28;20057;-92
2023/04/03 14:40:05;;;;;;;8.75;8.35;;;;;;;;;;4986291;28;20054;-92
2023/04/03 14:42:32;;;;;;;8.50;8.10;;;;;;;;;;4982656;28;20518;-93
2023/04/03 14:45:00;;;;;;;14.02;13.38;;;;;;;;;;4985255;28;20064;-93
2023/04/03 14:47:28;;;;;;;8.15;7.53;;;;;;;;;;4998361;28;20051;-93
2023/04/03 14:49:55;;;;;;;8.32;8.02;;;;;;;;;;4996615;28;20046;-93
2023/04/03 14:52:23;;;;;;;10.20;9.57;;;;;;;;;;4995602;28;20077;-94